createdAt,value
2023-04-14T00:00:14.541Z,6
2023-04-14T00:01:14.971Z,6
2023-04-14T00:02:15.588Z,6
2023-04-14T00:03:15.936Z,6
2023-04-14T00:04:15.660Z,6
2023-04-14T00:05:15.174Z,6
2023-04-14T00:06:14.415Z,6
2023-04-14T00:07:14.334Z,6
2023-04-14T00:08:14.492Z,6
2023-04-14T00:09:15.155Z,6
2023-04-14T00:10:14.482Z,6
2023-04-14T00:11:14.866Z,6
2023-04-14T00:12:14.811Z,5
2023-04-14T00:13:15.054Z,5
2023-04-14T00:14:15.032Z,5
2023-04-14T00:15:14.331Z,5
2023-04-14T00:16:14.547Z,5
2023-04-14T00:17:15.018Z,4
2023-04-14T00:18:15.412Z,4
2023-04-14T00:19:14.271Z,4
2023-04-14T00:20:14.422Z,4
2023-04-14T00:21:14.519Z,4
2023-04-14T00:22:14.824Z,5
2023-04-14T00:23:15.011Z,5
2023-04-14T00:24:14.476Z,5
2023-04-14T00:25:14.839Z,5
2023-04-14T00:26:15.060Z,5
2023-04-14T00:27:14.323Z,1
2023-04-14T00:28:14.538Z,1
2023-04-14T00:29:14.786Z,1
2023-04-14T00:30:15.070Z,1
2023-04-14T00:31:15.496Z,1
2023-04-14T00:32:14.747Z,1
2023-04-14T00:33:14.562Z,1
2023-04-14T00:34:15.213Z,1
2023-04-14T00:35:14.346Z,1
2023-04-14T00:36:14.892Z,1
2023-04-14T00:37:14.939Z,3
2023-04-14T00:38:15.330Z,3
2023-04-14T00:39:14.470Z,3
2023-04-14T00:40:14.733Z,3
2023-04-14T00:41:14.825Z,3
2023-04-14T00:42:15.187Z,3
2023-04-14T00:43:14.299Z,3
2023-04-14T00:44:14.604Z,3
2023-04-14T00:45:14.791Z,3
2023-04-14T00:46:15.035Z,3
2023-04-14T00:47:14.310Z,3
2023-04-14T00:48:14.502Z,3
2023-04-14T00:49:14.871Z,3
2023-04-14T00:50:15.071Z,3
2023-04-14T00:51:15.136Z,3
2023-04-14T00:52:14.303Z,3
2023-04-14T00:53:14.540Z,3
2023-04-14T00:54:14.634Z,3
2023-04-14T00:55:15.130Z,3
2023-04-14T00:56:14.219Z,3
2023-04-14T00:57:14.760Z,3
2023-04-14T00:58:14.935Z,3
2023-04-14T00:59:15.166Z,3
2023-04-14T01:00:14.407Z,3
2023-04-14T01:01:14.779Z,3
2023-04-14T01:02:15.456Z,3
2023-04-14T01:03:16.092Z,3
2023-04-14T01:04:14.843Z,3
2023-04-14T01:05:15.730Z,3
2023-04-14T01:06:14.762Z,3
2023-04-14T01:07:15.347Z,4
2023-04-14T01:08:14.453Z,4
2023-04-14T01:09:14.448Z,4
2023-04-14T01:10:14.802Z,4
2023-04-14T01:11:14.995Z,4
2023-04-14T01:12:15.060Z,1
2023-04-14T01:13:14.371Z,1
2023-04-14T01:14:14.753Z,1
2023-04-14T01:15:14.955Z,1
2023-04-14T01:16:14.622Z,1
2023-04-14T01:17:14.779Z,0
2023-04-14T01:18:14.884Z,0
2023-04-14T01:19:15.120Z,0
2023-04-14T01:20:14.440Z,0
2023-04-14T01:21:14.532Z,0
2023-04-14T01:22:14.590Z,0
2023-04-14T01:23:14.921Z,0
2023-04-14T01:24:15.288Z,0
2023-04-14T01:25:14.556Z,0
2023-04-14T01:26:14.700Z,0
2023-04-14T01:27:14.852Z,0
2023-04-14T01:28:15.176Z,0
2023-04-14T01:29:14.165Z,0
2023-04-14T01:30:14.757Z,0
2023-04-14T01:31:15.173Z,0
2023-04-14T01:32:15.133Z,3
2023-04-14T01:33:14.456Z,3
2023-04-14T01:34:14.574Z,3
2023-04-14T01:35:14.880Z,3
2023-04-14T01:36:14.368Z,3
2023-04-14T01:37:14.779Z,3
2023-04-14T01:38:14.984Z,3
2023-04-14T01:39:15.218Z,3
2023-04-14T01:40:14.604Z,3
2023-04-14T01:41:14.760Z,3
2023-04-14T01:42:14.784Z,4
2023-04-14T01:43:15.048Z,4
2023-04-14T01:44:14.428Z,4
2023-04-14T01:45:14.760Z,4
2023-04-14T01:46:14.962Z,4
2023-04-14T01:47:14.919Z,4
2023-04-14T01:48:15.644Z,4
2023-04-14T01:49:14.323Z,4
2023-04-14T01:50:14.576Z,4
2023-04-14T01:51:15.042Z,4
2023-04-14T01:52:15.258Z,6
2023-04-14T01:53:14.527Z,6
2023-04-14T01:54:14.704Z,6
2023-04-14T01:55:15.197Z,6
2023-04-14T01:56:14.342Z,6
2023-04-14T01:57:14.366Z,4
2023-04-14T01:58:14.760Z,4
2023-04-14T01:59:14.967Z,4
2023-04-14T02:00:14.478Z,4
2023-04-14T02:01:14.965Z,4
2023-04-14T02:02:15.497Z,5
2023-04-14T02:03:14.850Z,5
2023-04-14T02:04:14.596Z,5
2023-04-14T02:05:14.844Z,5
2023-04-14T02:06:15.205Z,5
2023-04-14T02:07:14.446Z,5
2023-04-14T02:08:14.615Z,5
2023-04-14T02:09:15.073Z,5
2023-04-14T02:10:15.238Z,5
2023-04-14T02:11:14.306Z,5
2023-04-14T02:12:14.188Z,6
2023-04-14T02:13:14.614Z,6
2023-04-14T02:14:14.715Z,6
2023-04-14T02:15:14.922Z,6
2023-04-14T02:16:15.519Z,6
2023-04-14T02:17:14.451Z,7
2023-04-14T02:18:14.832Z,7
2023-04-14T02:19:14.841Z,7
2023-04-14T02:20:15.373Z,7
2023-04-14T02:21:14.092Z,7
2023-04-14T02:22:14.920Z,11
2023-04-14T02:23:14.960Z,11
2023-04-14T02:24:14.417Z,11
2023-04-14T02:25:15.164Z,11
2023-04-14T02:26:14.408Z,11
2023-04-14T02:27:14.483Z,14
2023-04-14T02:28:14.666Z,14
2023-04-14T02:29:15.112Z,14
2023-04-14T02:30:15.129Z,14
2023-04-14T02:31:14.869Z,14
2023-04-14T02:32:14.635Z,12
2023-04-14T02:33:15.200Z,12
2023-04-14T02:34:14.099Z,12
2023-04-14T02:35:14.874Z,12
2023-04-14T02:36:14.938Z,12
2023-04-14T02:37:15.244Z,9
2023-04-14T02:38:14.359Z,9
2023-04-14T02:39:14.543Z,9
2023-04-14T02:40:14.843Z,9
2023-04-14T02:41:14.381Z,9
2023-04-14T02:42:14.419Z,11
2023-04-14T02:43:14.490Z,11
2023-04-14T02:44:15.222Z,11
2023-04-14T02:45:14.263Z,11
2023-04-14T02:46:14.744Z,11
2023-04-14T02:47:14.631Z,8
2023-04-14T02:48:14.966Z,8
2023-04-14T02:49:17.436Z,8
2023-04-14T02:51:14.648Z,8
2023-04-14T02:52:14.963Z,7
2023-04-14T02:53:15.226Z,7
2023-04-14T02:54:14.568Z,7
2023-04-14T02:55:14.902Z,7
2023-04-14T02:56:14.845Z,7
2023-04-14T02:57:14.847Z,6
2023-04-14T02:58:15.000Z,6
2023-04-14T02:59:14.422Z,6
2023-04-14T03:00:14.523Z,6
2023-04-14T03:01:14.718Z,6
2023-04-14T03:02:15.708Z,6
2023-04-14T03:03:15.235Z,6
2023-04-14T03:04:14.863Z,6
2023-04-14T03:05:15.110Z,6
2023-04-14T03:06:15.004Z,6
2023-04-14T03:07:14.463Z,7
2023-04-14T03:08:14.879Z,7
2023-04-14T03:09:14.865Z,7
2023-04-14T03:10:15.035Z,7
2023-04-14T03:11:15.105Z,7
2023-04-14T03:12:14.202Z,9
2023-04-14T03:13:14.594Z,9
2023-04-14T03:14:14.955Z,9
2023-04-14T03:15:15.241Z,9
2023-04-14T03:16:14.871Z,9
2023-04-14T03:17:14.980Z,8
2023-04-14T03:18:14.980Z,8
2023-04-14T03:19:14.368Z,8
2023-04-14T03:20:14.844Z,8
2023-04-14T03:21:14.538Z,8
2023-04-14T03:22:14.960Z,7
2023-04-14T03:23:15.193Z,7
2023-04-14T03:24:14.484Z,7
2023-04-14T03:25:14.823Z,7
2023-04-14T03:26:14.436Z,7
2023-04-14T03:27:14.550Z,6
2023-04-14T03:28:14.641Z,6
2023-04-14T03:29:15.002Z,6
2023-04-14T03:30:14.404Z,6
2023-04-14T03:31:15.258Z,6
2023-04-14T03:32:15.255Z,11
2023-04-14T03:33:14.429Z,11
2023-04-14T03:34:14.548Z,11
2023-04-14T03:35:14.574Z,11
2023-04-14T03:36:14.821Z,11
2023-04-14T03:37:14.854Z,11
2023-04-14T03:38:14.852Z,11
2023-04-14T03:39:14.866Z,11
2023-04-14T03:40:14.421Z,11
2023-04-14T03:41:14.823Z,11
2023-04-14T03:42:14.952Z,11
2023-04-14T03:43:14.929Z,11
2023-04-14T03:44:14.187Z,11
2023-04-14T03:45:14.372Z,11
2023-04-14T03:46:16.810Z,11
2023-04-14T03:47:16.414Z,6
2023-04-14T03:48:15.054Z,6
2023-04-14T03:49:14.265Z,6
2023-04-14T03:50:14.639Z,6
2023-04-14T03:51:14.878Z,6
2023-04-14T03:52:14.955Z,11
2023-04-14T03:53:15.110Z,11
2023-04-14T03:54:14.846Z,11
2023-04-14T03:55:14.793Z,11
2023-04-14T03:56:14.738Z,11
2023-04-14T03:57:14.543Z,8
2023-04-14T03:58:15.067Z,8
2023-04-14T03:59:16.502Z,8
2023-04-14T04:00:14.493Z,8
2023-04-14T04:01:14.844Z,8
2023-04-14T04:02:15.640Z,9
2023-04-14T04:03:15.602Z,9
2023-04-14T04:04:15.109Z,9
2023-04-14T04:05:14.916Z,9
2023-04-14T04:06:14.813Z,9
2023-04-14T04:07:15.213Z,9
2023-04-14T04:08:14.473Z,9
2023-04-14T04:09:14.469Z,9
2023-04-14T04:10:14.911Z,9
2023-04-14T04:11:15.213Z,9
2023-04-14T04:12:14.347Z,9
2023-04-14T04:13:14.768Z,9
2023-04-14T04:14:14.982Z,9
2023-04-14T04:15:14.486Z,9
2023-04-14T04:16:14.956Z,9
2023-04-14T04:17:15.042Z,11
2023-04-14T04:18:14.292Z,11
2023-04-14T04:19:14.925Z,11
2023-04-14T04:20:16.073Z,11
2023-04-14T04:21:14.836Z,11
2023-04-14T04:22:14.800Z,9
2023-04-14T04:23:15.207Z,9
2023-04-14T04:24:14.527Z,9
2023-04-14T04:25:14.606Z,9
2023-04-14T04:26:15.131Z,9
2023-04-14T04:27:33.085Z,9
2023-04-14T04:29:14.787Z,9
2023-04-14T04:30:14.902Z,9
2023-04-14T04:31:14.890Z,9
2023-04-14T04:32:15.229Z,8
2023-04-14T04:33:14.370Z,8
2023-04-14T04:34:14.684Z,8
2023-04-14T04:35:14.963Z,8
2023-04-14T04:36:15.323Z,8
2023-04-14T04:37:14.454Z,8
2023-04-14T04:38:14.849Z,8
2023-04-14T04:39:15.029Z,8
2023-04-14T04:40:15.348Z,8
2023-04-14T04:41:14.413Z,8
2023-04-14T04:42:14.795Z,7
2023-04-14T04:43:14.778Z,7
2023-04-14T04:44:15.049Z,7
2023-04-14T04:45:15.044Z,7
2023-04-14T04:46:14.616Z,7
2023-04-14T04:47:14.612Z,5
2023-04-14T04:48:15.103Z,5
2023-04-14T04:49:15.057Z,5
2023-04-14T04:50:14.348Z,5
2023-04-14T04:51:14.675Z,5
2023-04-14T04:52:14.868Z,4
2023-04-14T04:53:15.248Z,4
2023-04-14T04:54:14.530Z,4
2023-04-14T04:55:14.770Z,4
2023-04-14T04:56:14.426Z,4
2023-04-14T04:57:14.418Z,4
2023-04-14T04:58:14.864Z,4
2023-04-14T04:59:15.120Z,4
2023-04-14T05:00:14.305Z,4
2023-04-14T05:01:15.213Z,4
2023-04-14T05:02:15.257Z,3
2023-04-14T05:03:15.430Z,3
2023-04-14T05:04:15.160Z,3
2023-04-14T05:05:14.251Z,3
2023-04-14T05:06:14.542Z,3
2023-04-14T05:07:14.921Z,5
2023-04-14T05:08:17.685Z,5
2023-04-14T05:10:14.583Z,5
2023-04-14T05:11:14.874Z,5
2023-04-14T05:12:15.082Z,5
2023-04-14T05:13:14.849Z,5
2023-04-14T05:14:14.800Z,5
2023-04-14T05:15:14.916Z,5
2023-04-14T05:16:15.199Z,5
2023-04-14T05:17:14.344Z,6
2023-04-14T05:18:14.540Z,6
2023-04-14T05:19:14.763Z,6
2023-04-14T05:20:15.124Z,6
2023-04-14T05:21:14.574Z,6
2023-04-14T05:22:15.003Z,4
2023-04-14T05:23:15.283Z,4
2023-04-14T05:24:14.444Z,4
2023-04-14T05:25:14.775Z,4
2023-04-14T05:27:18.191Z,4
2023-04-14T05:29:14.896Z,5
2023-04-14T05:30:15.070Z,5
2023-04-14T05:31:14.477Z,5
2023-04-14T05:32:14.293Z,4
2023-04-14T05:33:14.850Z,4
2023-04-14T05:34:14.852Z,4
2023-04-14T05:35:14.371Z,4
2023-04-14T05:36:15.372Z,4
2023-04-14T05:37:14.518Z,5
2023-04-14T05:38:14.764Z,5
2023-04-14T05:39:14.967Z,5
2023-04-14T05:40:14.229Z,5
2023-04-14T05:41:14.602Z,5
2023-04-14T05:42:14.472Z,6
2023-04-14T05:43:14.870Z,6
2023-04-14T05:44:14.477Z,6
2023-04-14T05:45:14.774Z,6
2023-04-14T05:46:14.824Z,6
2023-04-14T05:47:14.721Z,6
2023-04-14T05:48:14.945Z,6
2023-04-14T05:49:15.584Z,6
2023-04-14T05:50:14.324Z,6
2023-04-14T05:51:14.387Z,6
2023-04-14T05:52:14.956Z,8
2023-04-14T05:53:15.106Z,8
2023-04-14T05:54:14.760Z,8
2023-04-14T05:55:14.368Z,8
2023-04-14T05:56:14.775Z,8
2023-04-14T05:57:15.032Z,7
2023-04-14T05:58:14.416Z,7
2023-04-14T05:59:14.652Z,7
2023-04-14T06:00:14.766Z,7
2023-04-14T06:01:14.764Z,7
2023-04-14T06:02:15.404Z,6
2023-04-14T06:03:15.086Z,6
2023-04-14T06:04:17.006Z,6
2023-04-14T06:05:15.661Z,6
2023-04-14T06:06:15.181Z,6
2023-04-14T06:07:14.187Z,7
2023-04-14T06:08:14.595Z,7
2023-04-14T06:09:14.957Z,7
2023-04-14T06:10:14.888Z,7
2023-04-14T06:11:14.115Z,7
2023-04-14T06:12:14.523Z,8
2023-04-14T06:13:14.743Z,8
2023-04-14T06:14:14.808Z,8
2023-04-14T06:15:14.920Z,8
2023-04-14T06:16:14.431Z,8
2023-04-14T06:17:14.583Z,7
2023-04-14T06:18:15.100Z,7
2023-04-14T06:19:14.258Z,7
2023-04-14T06:20:14.396Z,7
2023-04-14T06:21:15.133Z,7
2023-04-14T06:22:14.348Z,9
2023-04-14T06:23:14.748Z,9
2023-04-14T06:24:15.005Z,9
2023-04-14T06:25:15.458Z,9
2023-04-14T06:26:15.123Z,9
2023-04-14T06:27:14.440Z,8
2023-04-14T06:28:14.440Z,8
2023-04-14T06:29:14.824Z,8
2023-04-14T06:30:14.932Z,8
2023-04-14T06:31:14.895Z,8
2023-04-14T06:32:15.873Z,8
2023-04-14T06:33:14.599Z,8
2023-04-14T06:34:14.588Z,8
2023-04-14T06:35:36.242Z,8
2023-04-14T06:36:14.392Z,8
2023-04-14T06:37:14.834Z,8
2023-04-14T06:38:14.870Z,8
2023-04-14T06:39:14.401Z,8
2023-04-14T06:40:14.723Z,8
2023-04-14T06:41:14.832Z,8
2023-04-14T06:42:14.292Z,7
2023-04-14T06:43:14.750Z,7
2023-04-14T06:44:14.775Z,7
2023-04-14T06:45:15.060Z,7
2023-04-14T06:46:15.065Z,7
2023-04-14T06:47:14.934Z,8
2023-04-14T06:48:15.238Z,8
2023-04-14T06:49:14.420Z,8
2023-04-14T06:50:14.724Z,8
2023-04-14T06:51:15.003Z,8
2023-04-14T06:52:14.375Z,8
2023-04-14T06:53:14.485Z,8
2023-04-14T06:54:14.713Z,8
2023-04-14T06:55:14.254Z,8
2023-04-14T06:56:14.760Z,8
2023-04-14T06:57:15.105Z,9
2023-04-14T06:58:14.608Z,9
2023-04-14T06:59:14.516Z,9
2023-04-14T07:00:15.073Z,9
2023-04-14T07:01:15.263Z,9
2023-04-14T07:02:14.550Z,8
2023-04-14T07:03:15.153Z,8
2023-04-14T07:04:16.885Z,8
2023-04-14T07:05:15.963Z,8
2023-04-14T07:06:14.836Z,8
2023-04-14T07:07:14.850Z,7
2023-04-14T07:08:14.926Z,7
2023-04-14T07:09:15.181Z,7
2023-04-14T07:10:14.486Z,7
2023-04-14T07:11:14.511Z,7
2023-04-14T07:12:14.931Z,8
2023-04-14T07:13:15.255Z,8
2023-04-14T07:14:14.382Z,8
2023-04-14T07:15:14.643Z,8
2023-04-14T07:16:15.118Z,8
2023-04-14T07:17:14.911Z,8
2023-04-14T07:18:14.603Z,8
2023-04-14T07:19:14.508Z,8
2023-04-14T07:20:14.865Z,8
2023-04-14T07:21:15.233Z,8
2023-04-14T07:22:14.225Z,9
2023-04-14T07:23:14.636Z,9
2023-04-14T07:24:16.301Z,9
2023-04-14T07:25:15.011Z,9
2023-04-14T07:26:14.901Z,9
2023-04-14T07:27:15.736Z,13
2023-04-14T07:28:14.162Z,13
2023-04-14T07:29:14.638Z,13
2023-04-14T07:30:14.880Z,13
2023-04-14T07:31:14.367Z,13
2023-04-14T07:32:14.842Z,9
2023-04-14T07:33:15.018Z,9
2023-04-14T07:34:15.230Z,9
2023-04-14T07:35:14.377Z,9
2023-04-14T07:36:14.650Z,9
2023-04-14T07:37:14.882Z,12
2023-04-14T07:38:14.746Z,12
2023-04-14T07:39:14.889Z,12
2023-04-14T07:40:14.421Z,12
2023-04-14T07:41:14.620Z,12
2023-04-14T07:42:14.754Z,11
2023-04-14T07:43:15.117Z,11
2023-04-14T07:44:15.124Z,11
2023-04-14T07:45:14.532Z,11
2023-04-14T07:46:15.102Z,11
2023-04-14T07:47:15.088Z,11
2023-04-14T07:48:15.492Z,11
2023-04-14T07:49:14.335Z,11
2023-04-14T07:50:14.487Z,11
2023-04-14T07:51:14.837Z,11
2023-04-14T07:52:14.948Z,11
2023-04-14T07:53:14.855Z,11
2023-04-14T07:54:14.264Z,11
2023-04-14T07:55:14.507Z,11
2023-04-14T07:56:14.699Z,11
2023-04-14T07:57:14.581Z,13
2023-04-14T07:58:19.833Z,13
2023-04-14T08:00:14.591Z,13
2023-04-14T08:01:14.834Z,13
2023-04-14T08:02:15.546Z,13
2023-04-14T08:03:16.294Z,13
2023-04-14T08:04:15.945Z,13
2023-04-14T08:05:14.836Z,13
2023-04-14T08:06:14.815Z,13
2023-04-14T08:07:15.034Z,13
2023-04-14T08:08:14.222Z,13
2023-04-14T08:09:14.464Z,13
2023-04-14T08:10:14.537Z,13
2023-04-14T08:11:14.638Z,13
2023-04-14T08:12:15.004Z,15
2023-04-14T08:13:14.311Z,15
2023-04-14T08:14:14.805Z,15
2023-04-14T08:15:14.901Z,15
2023-04-14T08:16:15.503Z,15
2023-04-14T08:17:14.253Z,12
2023-04-14T08:18:14.593Z,12
2023-04-14T08:19:15.018Z,12
2023-04-14T08:20:15.298Z,12
2023-04-14T08:21:14.832Z,12
2023-04-14T08:22:14.941Z,12
2023-04-14T08:23:15.194Z,12
2023-04-14T08:24:14.370Z,12
2023-04-14T08:25:14.569Z,12
2023-04-14T08:26:14.609Z,12
2023-04-14T08:27:14.778Z,17
2023-04-14T08:28:14.800Z,17
2023-04-14T08:29:15.155Z,17
2023-04-14T08:30:16.717Z,17
2023-04-14T08:31:14.980Z,17
2023-04-14T08:32:15.822Z,11
2023-04-14T08:33:14.759Z,11
2023-04-14T08:34:28.357Z,11
2023-04-14T08:36:01.811Z,11
2023-04-14T08:37:14.892Z,15
2023-04-14T08:38:14.794Z,15
2023-04-14T08:39:14.620Z,15
2023-04-14T08:40:15.308Z,15
2023-04-14T08:41:14.221Z,15
2023-04-14T08:42:14.468Z,13
2023-04-14T08:43:17.804Z,13
2023-04-14T08:45:14.548Z,13
2023-04-14T08:46:15.125Z,13
2023-04-14T08:47:14.643Z,12
2023-04-14T08:48:15.277Z,12
2023-04-14T08:49:14.320Z,12
2023-04-14T08:50:14.572Z,12
2023-04-14T08:51:14.802Z,12
2023-04-14T08:52:15.143Z,12
2023-04-14T08:53:14.309Z,12
2023-04-14T08:54:14.641Z,12
2023-04-14T08:55:14.828Z,12
2023-04-14T08:56:14.844Z,12
2023-04-14T08:57:14.890Z,15
2023-04-14T08:58:14.389Z,15
2023-04-14T08:59:14.843Z,15
2023-04-14T09:00:14.882Z,15
2023-04-14T09:01:14.941Z,15
2023-04-14T09:02:16.127Z,13
2023-04-14T09:03:16.728Z,13
2023-04-14T09:04:16.530Z,13
2023-04-14T09:05:14.574Z,13
2023-04-14T09:06:14.944Z,13
2023-04-14T09:07:15.270Z,14
2023-04-14T09:08:14.524Z,14
2023-04-14T09:09:14.625Z,14
2023-04-14T09:10:15.004Z,14
2023-04-14T09:11:15.170Z,14
2023-04-14T09:12:14.674Z,17
2023-04-14T09:13:14.810Z,17
2023-04-14T09:14:15.238Z,17
2023-04-14T09:15:14.495Z,17
2023-04-14T09:16:14.303Z,17
2023-04-14T09:17:15.119Z,15
2023-04-14T09:18:15.007Z,15
2023-04-14T09:19:16.164Z,15
2023-04-14T09:20:50.255Z,15
2023-04-14T09:22:02.858Z,15
2023-04-14T09:23:16.439Z,11
2023-04-14T09:24:16.963Z,11
2023-04-14T09:25:14.562Z,11
2023-04-14T09:26:14.764Z,11
2023-04-14T09:27:14.789Z,13
2023-04-14T09:28:15.145Z,13
2023-04-14T09:29:14.155Z,13
2023-04-14T09:30:14.838Z,13
2023-04-14T09:31:15.435Z,13
2023-04-14T09:32:15.107Z,11
2023-04-14T09:33:14.938Z,11
2023-04-14T09:34:14.965Z,11
2023-04-14T09:35:15.190Z,11
2023-04-14T09:36:14.504Z,11
2023-04-14T09:37:14.604Z,14
2023-04-14T09:38:14.808Z,14
2023-04-14T09:39:15.176Z,14
2023-04-14T09:40:14.566Z,14
2023-04-14T09:41:14.800Z,14
2023-04-14T09:42:14.997Z,11
2023-04-14T09:43:15.008Z,11
2023-04-14T09:44:14.481Z,11
2023-04-14T09:45:14.602Z,11
2023-04-14T09:46:15.366Z,11
2023-04-14T09:47:14.154Z,12
2023-04-14T09:48:14.769Z,12
2023-04-14T09:49:14.829Z,12
2023-04-14T09:50:14.968Z,12
2023-04-14T09:51:15.012Z,12
2023-04-14T09:52:15.083Z,12
2023-04-14T09:53:15.342Z,12
2023-04-14T09:54:15.044Z,12
2023-04-14T09:55:14.467Z,12
2023-04-14T09:56:14.736Z,12
2023-04-14T09:57:15.150Z,14
2023-04-14T09:58:14.333Z,14
2023-04-14T09:59:15.017Z,14
2023-04-14T10:00:14.769Z,14
2023-04-14T10:01:15.459Z,14
2023-04-14T10:02:15.983Z,17
2023-04-14T10:03:14.998Z,17
2023-04-14T10:04:15.005Z,17
2023-04-14T10:05:15.499Z,17
2023-04-14T10:06:14.525Z,17
2023-04-14T10:07:14.559Z,13
2023-04-14T10:08:14.995Z,13
2023-04-14T10:09:15.088Z,13
2023-04-14T10:10:14.483Z,13
2023-04-14T10:11:14.536Z,13
2023-04-14T10:12:18.127Z,13
2023-04-14T10:13:15.176Z,13
2023-04-14T10:14:14.364Z,13
2023-04-14T10:15:15.270Z,13
2023-04-14T10:16:14.759Z,13
2023-04-14T10:17:14.618Z,17
2023-04-14T10:18:15.159Z,17
2023-04-14T10:19:15.656Z,17
2023-04-14T10:20:14.567Z,17
2023-04-14T10:21:14.501Z,17
2023-04-14T10:22:14.905Z,18
2023-04-14T10:23:15.074Z,18
2023-04-14T10:24:15.378Z,18
2023-04-14T10:25:14.569Z,18
2023-04-14T10:26:14.481Z,18
2023-04-14T10:27:14.823Z,12
2023-04-14T10:28:15.011Z,12
2023-04-14T10:29:14.539Z,12
2023-04-14T10:30:14.941Z,12
2023-04-14T10:31:15.289Z,12
2023-04-14T10:32:15.609Z,14
2023-04-14T10:33:14.521Z,14
2023-04-14T10:34:14.493Z,14
2023-04-14T10:35:14.821Z,14
2023-04-14T10:36:15.243Z,14
2023-04-14T10:37:14.528Z,12
2023-04-14T10:38:14.345Z,12
2023-04-14T10:39:14.780Z,12
2023-04-14T10:40:15.034Z,12
2023-04-14T10:41:14.573Z,12
2023-04-14T10:42:14.560Z,19
2023-04-14T10:43:14.776Z,19
2023-04-14T10:44:14.833Z,19
2023-04-14T10:45:15.221Z,19
2023-04-14T10:46:14.981Z,19
2023-04-14T10:47:15.744Z,11
2023-04-14T10:48:15.061Z,11
2023-04-14T10:49:14.239Z,11
2023-04-14T10:50:14.730Z,11
2023-04-14T10:51:14.917Z,11
2023-04-14T10:52:14.994Z,9
2023-04-14T10:53:14.381Z,9
2023-04-14T10:54:14.757Z,9
2023-04-14T10:55:14.953Z,9
2023-04-14T10:56:14.847Z,9
2023-04-14T10:57:14.846Z,13
2023-04-14T10:58:15.163Z,13
2023-04-14T10:59:14.320Z,13
2023-04-14T11:00:14.697Z,13
2023-04-14T11:01:15.014Z,13
2023-04-14T11:02:15.443Z,12
2023-04-14T11:03:15.849Z,12
2023-04-14T11:04:15.400Z,12
2023-04-14T11:05:15.026Z,12
2023-04-14T11:06:14.952Z,12
2023-04-14T11:07:14.500Z,12
2023-04-14T11:08:14.785Z,12
2023-04-14T11:09:14.798Z,12
2023-04-14T11:10:14.900Z,12
2023-04-14T11:11:15.073Z,12
2023-04-14T11:12:14.756Z,11
2023-04-14T11:13:16.050Z,11
2023-04-14T11:14:14.908Z,11
2023-04-14T11:15:14.333Z,11
2023-04-14T11:16:14.582Z,11
2023-04-14T11:17:14.541Z,15
2023-04-14T11:18:14.701Z,15
2023-04-14T11:19:14.762Z,15
2023-04-14T11:20:14.997Z,15
2023-04-14T11:21:14.423Z,15
2023-04-14T11:22:14.535Z,20
2023-04-14T11:23:14.900Z,20
2023-04-14T11:24:15.073Z,20
2023-04-14T11:25:15.179Z,20
2023-04-14T11:26:14.560Z,20
2023-04-14T11:27:14.487Z,13
2023-04-14T11:28:14.738Z,13
2023-04-14T11:29:15.150Z,13
2023-04-14T11:30:14.294Z,13
2023-04-14T11:31:14.520Z,13
2023-04-14T11:32:15.021Z,11
2023-04-14T11:33:15.622Z,11
2023-04-14T11:34:14.128Z,11
2023-04-14T11:35:15.025Z,11
2023-04-14T11:36:14.861Z,11
2023-04-14T11:37:14.748Z,12
2023-04-14T11:38:14.388Z,12
2023-04-14T11:39:14.557Z,12
2023-04-14T11:40:14.724Z,12
2023-04-14T11:41:14.272Z,12
2023-04-14T11:42:14.510Z,12
2023-04-14T11:43:14.795Z,12
2023-04-14T11:44:15.284Z,12
2023-04-14T11:45:14.532Z,12
2023-04-14T11:46:15.755Z,12
2023-04-14T11:47:14.455Z,14
2023-04-14T11:48:14.759Z,14
2023-04-14T11:49:14.900Z,14
2023-04-14T11:50:15.321Z,14
2023-04-14T11:51:14.958Z,14
2023-04-14T11:52:14.192Z,11
2023-04-14T11:53:14.520Z,11
2023-04-14T11:54:14.999Z,11
2023-04-14T11:55:14.948Z,11
2023-04-14T11:56:15.175Z,11
2023-04-14T11:57:15.043Z,15
2023-04-14T11:58:14.283Z,15
2023-04-14T11:59:14.508Z,15
2023-04-14T12:00:14.867Z,15
2023-04-14T12:01:15.266Z,15
2023-04-14T12:02:14.667Z,15
2023-04-14T12:03:15.786Z,15
2023-04-14T12:04:15.332Z,15
2023-04-14T12:05:15.330Z,15
2023-04-14T12:06:14.864Z,15
2023-04-14T12:07:15.707Z,12
2023-04-14T12:09:14.704Z,12
2023-04-14T12:10:15.334Z,12
2023-04-14T12:11:15.113Z,12
2023-04-14T12:12:16.922Z,9
2023-04-14T12:13:14.848Z,9
2023-04-14T12:14:14.634Z,9
2023-04-14T12:15:14.025Z,9
2023-04-14T12:16:14.445Z,9
2023-04-14T12:17:14.383Z,12
2023-04-14T12:18:14.757Z,12
2023-04-14T12:19:14.998Z,12
2023-04-14T12:20:15.086Z,12
2023-04-14T12:21:19.654Z,12
2023-04-14T12:22:14.273Z,12
2023-04-14T12:23:14.749Z,12
2023-04-14T12:24:14.946Z,12
2023-04-14T12:25:15.327Z,12
2023-04-14T12:26:14.837Z,12
2023-04-14T12:27:14.828Z,9
2023-04-14T12:28:15.084Z,9
2023-04-14T12:29:15.149Z,9
2023-04-14T12:30:14.349Z,9
2023-04-14T12:31:14.791Z,9
2023-04-14T12:32:14.985Z,8
2023-04-14T12:33:14.916Z,8
2023-04-14T12:34:14.298Z,8
2023-04-14T12:35:14.563Z,8
2023-04-14T12:36:14.818Z,8
2023-04-14T12:37:15.136Z,15
2023-04-14T12:38:14.356Z,15
2023-04-14T12:39:14.740Z,15
2023-04-14T12:40:16.981Z,15
2023-04-14T12:42:14.818Z,13
2023-04-14T12:43:15.008Z,13
2023-04-14T12:44:14.281Z,13
2023-04-14T12:45:14.469Z,13
2023-04-14T12:46:15.013Z,13
2023-04-14T12:47:15.394Z,9
2023-04-14T12:48:15.563Z,9
2023-04-14T12:49:14.432Z,9
2023-04-14T12:50:14.835Z,9
2023-04-14T12:51:16.111Z,9
2023-04-14T12:52:14.853Z,11
2023-04-14T12:53:14.802Z,11
2023-04-14T12:54:14.824Z,11
2023-04-14T12:55:15.321Z,11
2023-04-14T12:56:14.190Z,11
2023-04-14T12:57:14.405Z,13
2023-04-14T12:58:14.845Z,13
2023-04-14T12:59:14.907Z,13
2023-04-14T13:00:15.276Z,13
2023-04-14T13:01:15.383Z,13
2023-04-14T13:02:14.868Z,8
2023-04-14T13:03:15.394Z,8
2023-04-14T13:04:15.576Z,8
2023-04-14T13:05:14.698Z,8
2023-04-14T13:06:14.909Z,8
2023-04-14T13:07:14.311Z,11
2023-04-14T13:08:14.473Z,11
2023-04-14T13:09:14.645Z,11
2023-04-14T13:10:15.067Z,11
2023-04-14T13:11:15.143Z,11
2023-04-14T13:12:14.481Z,12
2023-04-14T13:13:14.548Z,12
2023-04-14T13:14:14.860Z,12
2023-04-14T13:16:19.773Z,12
2023-04-14T13:18:15.262Z,12
2023-04-14T13:19:15.223Z,12
2023-04-14T13:20:14.402Z,12
2023-04-14T13:21:14.865Z,12
2023-04-14T13:22:14.986Z,8
2023-04-14T13:23:15.212Z,8
2023-04-14T13:24:14.171Z,8
2023-04-14T13:25:14.566Z,8
2023-04-14T13:26:14.850Z,8
2023-04-14T13:27:14.947Z,11
2023-04-14T13:28:15.020Z,11
2023-04-14T13:29:14.211Z,11
2023-04-14T13:30:14.515Z,11
2023-04-14T13:31:14.652Z,11
2023-04-14T13:32:15.343Z,12
2023-04-14T13:33:15.376Z,12
2023-04-14T13:34:14.361Z,12
2023-04-14T13:35:14.393Z,12
2023-04-14T13:36:14.622Z,12
2023-04-14T13:37:14.978Z,12
2023-04-14T13:38:15.140Z,12
2023-04-14T13:39:14.214Z,12
2023-04-14T13:40:14.629Z,12
2023-04-14T13:41:14.818Z,12
2023-04-14T13:42:14.876Z,12
2023-04-14T13:43:15.109Z,12
2023-04-14T13:44:14.468Z,12
2023-04-14T13:45:14.841Z,12
2023-04-14T13:46:14.948Z,12
2023-04-14T13:47:15.102Z,13
2023-04-14T13:48:15.209Z,13
2023-04-14T13:49:14.504Z,13
2023-04-14T13:50:14.949Z,13
2023-04-14T13:51:14.527Z,13
2023-04-14T13:52:14.638Z,12
2023-04-14T13:53:14.634Z,12
2023-04-14T13:54:14.912Z,12
2023-04-14T13:55:14.316Z,12
2023-04-14T13:56:14.523Z,12
2023-04-14T13:57:15.099Z,5
2023-04-14T13:58:15.314Z,5
2023-04-14T13:59:14.471Z,5
2023-04-14T14:00:14.815Z,5
2023-04-14T14:01:14.964Z,5
2023-04-14T14:02:15.657Z,12
2023-04-14T14:03:15.406Z,12
2023-04-14T14:04:15.630Z,12
2023-04-14T14:05:14.857Z,12
2023-04-14T14:06:14.274Z,12
2023-04-14T14:07:14.434Z,11
2023-04-14T14:08:14.852Z,11
2023-04-14T14:09:15.891Z,11
2023-04-14T14:10:15.383Z,11
2023-04-14T14:11:14.372Z,11
2023-04-14T14:12:14.621Z,6
2023-04-14T14:13:16.520Z,6
2023-04-14T14:14:15.244Z,6
2023-04-14T14:15:14.609Z,6
2023-04-14T14:16:29.422Z,6
2023-04-14T14:17:14.657Z,8
2023-04-14T14:18:15.447Z,8
2023-04-14T14:19:15.728Z,8
2023-04-14T14:20:14.974Z,8
2023-04-14T14:21:14.979Z,8
2023-04-14T14:22:14.361Z,13
2023-04-14T14:23:14.454Z,13
2023-04-14T14:24:14.851Z,13
2023-04-14T14:25:28.234Z,13
2023-04-14T14:27:14.786Z,8
2023-04-14T14:28:14.972Z,8
2023-04-14T14:29:14.990Z,8
2023-04-14T14:30:14.360Z,8
2023-04-14T14:31:16.342Z,8
2023-04-14T14:32:15.342Z,18
2023-04-14T14:33:14.794Z,18
2023-04-14T14:34:15.220Z,18
2023-04-14T14:35:14.380Z,18
2023-04-14T14:36:14.526Z,18
2023-04-14T14:37:14.936Z,6
2023-04-14T14:38:15.685Z,6
2023-04-14T14:39:14.263Z,6
2023-04-14T14:40:14.594Z,6
2023-04-14T14:41:14.482Z,6
2023-04-14T14:42:14.460Z,5
2023-04-14T14:43:14.932Z,5
2023-04-14T14:44:15.436Z,5
2023-04-14T14:45:15.692Z,5
2023-04-14T14:46:15.398Z,5